createdAt,value
2023-02-02T00:01:51.250Z,83.80
2023-02-02T00:04:24.626Z,83.78
2023-02-02T00:06:52.855Z,83.75
2023-02-02T00:09:21.039Z,83.76
2023-02-02T00:11:50.436Z,83.77
2023-02-02T00:14:18.773Z,83.76
2023-02-02T00:16:49.180Z,83.78
2023-02-02T00:19:22.265Z,83.81
2023-02-02T00:21:50.508Z,83.82
2023-02-02T00:24:19.181Z,83.78
2023-02-02T00:26:49.794Z,83.84
2023-02-02T00:29:20.500Z,83.71
2023-02-02T00:31:48.909Z,83.84
2023-02-02T00:34:17.244Z,83.80
2023-02-02T00:36:48.067Z,83.69
2023-02-02T00:39:19.945Z,83.71
2023-02-02T00:41:48.289Z,83.69
2023-02-02T00:44:45.975Z,83.64
2023-02-02T00:47:14.141Z,83.69
2023-02-02T00:49:42.178Z,83.65
2023-02-02T00:52:11.822Z,83.65
2023-02-02T00:54:40.223Z,83.62
2023-02-02T00:57:12.148Z,83.63
2023-02-02T00:59:40.694Z,83.69
2023-02-02T01:02:12.549Z,83.70
2023-02-02T01:04:41.112Z,83.63
2023-02-02T01:07:10.857Z,83.70
2023-02-02T01:09:39.063Z,83.61
2023-02-02T01:12:10.491Z,83.65
2023-02-02T01:14:38.741Z,83.81
2023-02-02T01:17:06.929Z,83.74
2023-02-02T01:19:36.199Z,83.71
2023-02-02T01:22:04.177Z,83.70
2023-02-02T01:24:32.629Z,83.73
2023-02-02T01:27:01.411Z,83.80
2023-02-02T01:29:29.880Z,83.73
2023-02-02T01:31:57.974Z,83.76
2023-02-02T01:34:26.478Z,83.67
2023-02-02T01:36:56.816Z,83.78
2023-02-02T01:39:24.935Z,83.73
2023-02-02T01:41:53.069Z,83.69
2023-02-02T01:44:52.562Z,83.70
2023-02-02T01:47:22.248Z,83.71
2023-02-02T01:49:50.321Z,83.82
2023-02-02T01:52:19.157Z,83.75
2023-02-02T01:54:53.311Z,83.78
2023-02-02T01:57:33.697Z,83.76
2023-02-02T02:00:03.306Z,83.75
2023-02-02T02:02:44.794Z,83.70
2023-02-02T02:05:15.925Z,83.81
2023-02-02T02:07:45.964Z,83.81
2023-02-02T02:10:14.655Z,83.73
2023-02-02T02:12:45.215Z,83.73
2023-02-02T02:15:31.950Z,83.74
2023-02-02T02:18:25.747Z,83.73
2023-02-02T02:21:22.237Z,83.71
2023-02-02T02:24:59.373Z,83.78
2023-02-02T02:27:47.408Z,83.75
2023-02-02T02:30:25.849Z,83.71
2023-02-02T02:33:02.377Z,83.72
2023-02-02T02:35:40.455Z,83.76
2023-02-02T02:38:12.027Z,83.65
2023-02-02T02:40:47.503Z,83.76
2023-02-02T02:43:34.625Z,83.80
2023-02-02T02:46:02.844Z,83.77
2023-02-02T02:48:32.331Z,83.80
2023-02-02T02:51:43.919Z,83.80
2023-02-02T02:54:43.246Z,83.78
2023-02-02T02:57:29.808Z,83.75
2023-02-02T03:00:09.786Z,83.79
2023-02-02T03:03:20.389Z,83.78
2023-02-02T03:05:53.238Z,83.82
2023-02-02T03:08:36.253Z,83.83
2023-02-02T03:11:05.623Z,83.80
2023-02-02T03:13:33.886Z,83.86
2023-02-02T03:16:02.233Z,83.86
2023-02-02T03:18:31.616Z,83.93
2023-02-02T03:20:59.906Z,83.84
2023-02-02T03:23:28.245Z,83.80
2023-02-02T03:25:56.227Z,83.85
2023-02-02T03:28:24.612Z,83.82
2023-02-02T03:30:52.790Z,83.80
2023-02-02T03:33:21.211Z,83.75
2023-02-02T03:35:49.324Z,83.88
2023-02-02T03:38:21.891Z,83.75
2023-02-02T03:40:51.253Z,83.81
2023-02-02T03:43:23.204Z,83.80
2023-02-02T03:46:04.459Z,83.80
2023-02-02T03:48:35.687Z,83.83
2023-02-02T03:51:14.222Z,83.80
2023-02-02T03:53:47.737Z,83.84
2023-02-02T03:56:16.126Z,83.81
2023-02-02T03:58:46.353Z,83.82
2023-02-02T04:01:15.077Z,83.76
2023-02-02T04:03:43.317Z,83.75
2023-02-02T04:06:11.669Z,83.75
2023-02-02T04:08:39.711Z,83.77
2023-02-02T04:11:11.243Z,83.78
2023-02-02T04:13:40.139Z,83.71
2023-02-02T04:16:08.271Z,83.75
2023-02-02T04:18:39.077Z,83.83
2023-02-02T04:21:07.344Z,83.72
2023-02-02T04:23:35.514Z,83.68
2023-02-02T04:26:03.736Z,83.82
2023-02-02T04:28:31.756Z,83.84
2023-02-02T04:31:00.022Z,83.72
2023-02-02T04:33:28.623Z,83.78
2023-02-02T04:35:56.665Z,83.80
2023-02-02T04:38:28.838Z,83.75
2023-02-02T04:40:57.203Z,83.78
2023-02-02T04:43:25.541Z,83.80
2023-02-02T04:45:56.885Z,83.72
2023-02-02T04:48:24.971Z,83.78
2023-02-02T04:51:01.879Z,83.76
2023-02-02T04:53:30.255Z,83.77
2023-02-02T04:55:58.598Z,83.72
2023-02-02T04:58:27.100Z,83.85
2023-02-02T05:00:55.457Z,83.79
2023-02-02T05:03:24.309Z,83.69
2023-02-02T05:05:52.318Z,83.65
2023-02-02T05:08:20.558Z,83.69
2023-02-02T05:10:50.369Z,83.67
2023-02-02T05:13:20.454Z,83.70
2023-02-02T05:15:48.690Z,83.60
2023-02-02T05:18:17.460Z,83.67
2023-02-02T05:20:45.535Z,83.63
2023-02-02T05:23:13.623Z,83.68
2023-02-02T05:25:42.503Z,83.62
2023-02-02T05:28:11.012Z,83.63
2023-02-02T05:30:40.607Z,83.70
2023-02-02T05:33:08.690Z,83.70
2023-02-02T05:35:37.058Z,83.58
2023-02-02T05:38:05.681Z,83.60
2023-02-02T05:40:34.062Z,83.61
2023-02-02T05:43:02.401Z,83.58
2023-02-02T05:45:30.929Z,83.56
2023-02-02T05:47:59.207Z,83.54
2023-02-02T05:50:27.381Z,83.46
2023-02-02T05:53:03.179Z,83.48
2023-02-02T05:55:31.678Z,83.49
2023-02-02T05:57:59.733Z,83.51
2023-02-02T06:00:27.838Z,83.47
2023-02-02T08:15:37.693Z,87.84
2023-02-02T08:18:05.735Z,85.61
2023-02-02T08:20:34.138Z,85.22
2023-02-02T08:23:02.205Z,84.83
2023-02-02T08:25:30.463Z,84.57
2023-02-02T08:27:59.198Z,84.46
2023-02-02T08:30:27.723Z,84.17
2023-02-02T08:33:59.474Z,83.99
2023-02-02T08:36:29.527Z,83.74
2023-02-02T08:39:03.277Z,83.47
2023-02-02T08:41:32.759Z,83.43
2023-02-02T08:44:00.827Z,83.18
2023-02-02T08:46:29.302Z,82.95
2023-02-02T08:48:58.088Z,82.63
2023-02-02T08:51:27.130Z,82.24
2023-02-02T08:53:55.820Z,82.00
2023-02-02T08:56:25.603Z,81.81
2023-02-02T08:59:03.242Z,81.60
2023-02-02T09:01:32.585Z,81.45
2023-02-02T09:04:04.420Z,81.42
2023-02-02T09:06:33.758Z,81.20
2023-02-02T09:09:05.464Z,80.85
2023-02-02T09:11:33.823Z,80.72
2023-02-02T09:14:03.317Z,80.77
2023-02-02T09:16:32.430Z,80.58
2023-02-02T09:19:00.463Z,80.42
2023-02-02T09:21:28.747Z,80.17
2023-02-02T09:23:56.769Z,79.95
2023-02-02T09:26:27.219Z,79.92
2023-02-02T09:28:59.822Z,79.75
2023-02-02T09:31:28.066Z,79.51
2023-02-02T09:33:56.121Z,79.30
2023-02-02T09:36:24.960Z,79.21
2023-02-02T09:38:53.177Z,78.94
2023-02-02T09:41:27.268Z,78.82
2023-02-02T09:48:32.154Z,78.73
2023-02-02T09:51:03.503Z,78.52
2023-02-02T09:53:53.171Z,78.47
2023-02-02T09:56:54.664Z,78.11
2023-02-02T09:59:28.337Z,77.87
2023-02-02T10:01:58.621Z,77.62
2023-02-02T10:04:41.008Z,77.27
2023-02-02T10:07:25.215Z,77.13
2023-02-02T10:09:58.685Z,76.95
2023-02-02T10:13:03.081Z,76.88
2023-02-02T10:15:44.555Z,76.68
2023-02-02T10:18:15.726Z,76.36
2023-02-02T10:20:46.749Z,76.24
2023-02-02T10:23:37.861Z,75.92
2023-02-02T10:26:23.725Z,75.58
2023-02-02T10:29:14.208Z,75.21
2023-02-02T10:31:44.669Z,74.96
2023-02-02T10:34:21.962Z,74.78
2023-02-02T10:37:12.780Z,74.70
2023-02-02T10:39:57.744Z,74.67
2023-02-02T10:42:34.829Z,74.51
2023-02-02T10:45:04.897Z,74.28
2023-02-02T10:47:33.421Z,74.11
2023-02-02T10:50:13.884Z,73.82
2023-02-02T10:52:55.681Z,73.78
2023-02-02T10:55:56.896Z,73.59
2023-02-02T10:58:35.973Z,73.31
2023-02-02T11:01:08.040Z,73.36
2023-02-02T11:03:37.104Z,73.44
2023-02-02T11:06:25.302Z,73.45
2023-02-02T11:08:58.627Z,73.52
2023-02-02T11:11:30.007Z,73.59
2023-02-02T11:14:10.310Z,73.52
2023-02-02T11:16:43.755Z,73.50
2023-02-02T11:19:19.766Z,73.56
2023-02-02T11:21:54.882Z,73.57
2023-02-02T11:24:48.413Z,73.68
2023-02-02T11:27:41.569Z,73.49
2023-02-02T11:30:22.632Z,73.10
2023-02-02T11:32:51.112Z,72.79
2023-02-02T11:35:26.846Z,72.41
2023-02-02T11:37:59.086Z,71.98
2023-02-02T11:40:31.370Z,71.50
2023-02-02T11:43:01.555Z,71.15
2023-02-02T11:45:35.469Z,71.01
2023-02-02T11:48:18.140Z,70.87
2023-02-02T11:50:51.091Z,70.41
2023-02-02T11:53:47.789Z,69.83
2023-02-02T11:56:24.009Z,69.61
2023-02-02T11:58:56.680Z,69.36
2023-02-02T12:01:27.337Z,69.18
2023-02-02T12:03:57.055Z,69.03
2023-02-02T12:06:25.833Z,68.78
2023-02-02T12:08:57.429Z,68.93
2023-02-02T12:11:29.682Z,69.11
2023-02-02T12:14:24.039Z,69.28
2023-02-02T12:16:54.801Z,69.48
2023-02-02T12:19:35.029Z,69.74
2023-02-02T12:22:46.546Z,69.73
2023-02-02T12:25:14.672Z,69.88
2023-02-02T12:27:49.474Z,70.00
2023-02-02T12:30:28.680Z,69.81
2023-02-02T12:33:21.854Z,69.60
2023-02-02T12:36:40.747Z,69.50
2023-02-02T12:39:18.847Z,68.99
2023-02-02T12:41:53.062Z,68.80
2023-02-02T12:44:30.503Z,68.69
2023-02-02T12:47:26.656Z,68.64
2023-02-02T12:50:23.883Z,68.76
2023-02-02T12:52:59.676Z,68.86
2023-02-02T12:56:05.921Z,68.99
2023-02-02T12:59:19.420Z,69.01
2023-02-02T13:01:54.200Z,68.90
2023-02-02T13:04:50.435Z,69.03
2023-02-02T13:07:37.374Z,69.13
2023-02-02T13:10:28.689Z,69.24
2023-02-02T13:13:04.858Z,69.30
2023-02-02T13:15:36.208Z,69.36
2023-02-02T13:18:08.472Z,69.38
2023-02-02T13:20:45.836Z,69.57
2023-02-02T13:23:26.598Z,69.61
2023-02-02T13:26:00.757Z,69.86
2023-02-02T13:28:40.471Z,69.95
2023-02-02T13:31:14.932Z,70.06
2023-02-02T13:33:43.797Z,70.23
2023-02-02T13:36:26.035Z,70.29
2023-02-02T13:38:59.831Z,70.39
2023-02-02T13:41:27.885Z,70.48
2023-02-02T13:44:04.296Z,70.60
2023-02-02T13:46:48.331Z,70.67
2023-02-02T13:49:35.003Z,70.83
2023-02-02T13:52:28.609Z,70.92
2023-02-02T13:55:18.562Z,70.96
2023-02-02T13:58:12.603Z,70.99
2023-02-02T14:00:47.775Z,71.08
2023-02-02T14:03:26.443Z,71.20
2023-02-02T14:06:05.130Z,71.30
2023-02-02T14:08:33.209Z,71.35
2023-02-02T14:11:06.365Z,71.46
2023-02-02T14:14:07.607Z,71.50
2023-02-02T14:16:35.604Z,71.58
2023-02-02T14:19:06.659Z,71.71
2023-02-02T14:21:37.797Z,71.83
2023-02-02T14:24:27.551Z,71.91
2023-02-02T14:26:57.299Z,72.05
2023-02-02T14:29:31.788Z,72.16
2023-02-02T14:32:00.929Z,72.38
2023-02-02T14:34:42.510Z,72.43
2023-02-02T14:37:23.057Z,72.57
2023-02-02T14:40:06.801Z,72.64
2023-02-02T14:43:00.334Z,72.72
2023-02-02T14:45:33.126Z,72.82
2023-02-02T14:48:07.593Z,72.93
2023-02-02T14:50:40.665Z,72.95
2023-02-02T14:53:21.377Z,73.11
2023-02-02T14:55:55.984Z,73.20
2023-02-02T14:58:53.152Z,73.16
2023-02-02T15:01:24.281Z,73.21
2023-02-02T15:03:57.542Z,73.15
2023-02-02T15:06:26.649Z,73.29
2023-02-02T15:09:33.609Z,73.30
2023-02-02T15:12:04.984Z,73.38
2023-02-02T15:14:33.155Z,73.36
2023-02-02T15:17:03.470Z,73.42
2023-02-02T15:19:38.273Z,73.44
2023-02-02T15:22:33.000Z,73.57
2023-02-02T15:25:05.606Z,73.66
2023-02-02T15:27:33.909Z,73.77
2023-02-02T15:30:04.528Z,73.82
2023-02-02T15:32:34.098Z,73.88
2023-02-02T15:35:04.473Z,73.96
2023-02-02T15:37:40.469Z,74.04
2023-02-02T15:40:16.223Z,74.08
2023-02-02T15:42:55.070Z,74.22
2023-02-02T15:45:43.688Z,74.34
2023-02-02T15:48:31.692Z,74.43
2023-02-02T15:51:02.415Z,74.45
2023-02-02T15:53:42.747Z,74.58
2023-02-02T15:56:23.410Z,74.64
2023-02-02T15:58:53.904Z,74.78
2023-02-02T16:01:23.293Z,74.94
2023-02-02T16:03:54.151Z,75.03
2023-02-02T16:06:22.514Z,75.07
2023-02-02T16:08:50.517Z,75.15
2023-02-02T16:11:20.489Z,75.22
2023-02-02T16:14:03.031Z,75.37
2023-02-02T16:16:36.048Z,75.39
2023-02-02T16:19:14.874Z,75.39
2023-02-02T16:22:16.031Z,75.43
2023-02-02T16:24:47.474Z,75.61
2023-02-02T16:27:19.619Z,75.64
2023-02-02T16:29:48.074Z,75.64
2023-02-02T16:32:37.254Z,75.67
2023-02-02T16:35:07.694Z,75.79
2023-02-02T16:37:36.581Z,75.81
2023-02-02T16:40:27.686Z,75.95
2023-02-02T16:43:06.721Z,76.11
2023-02-02T16:46:04.723Z,76.20
2023-02-02T16:48:38.793Z,76.23
2023-02-02T16:51:16.077Z,76.28
2023-02-02T16:53:48.071Z,76.37
2023-02-02T16:56:39.211Z,76.47
2023-02-02T16:59:18.871Z,76.52
2023-02-02T17:01:52.555Z,76.56
2023-02-02T17:04:28.582Z,76.61
2023-02-02T17:06:58.504Z,76.59
2023-02-02T17:09:35.646Z,76.70
2023-02-02T17:12:34.778Z,76.74
2023-02-02T17:15:29.116Z,76.79
2023-02-02T17:17:57.935Z,76.93
2023-02-02T17:20:26.914Z,77.05
2023-02-02T17:23:07.272Z,77.17
2023-02-02T17:25:37.449Z,77.27
2023-02-02T17:28:07.955Z,77.31
2023-02-02T17:30:36.979Z,77.44
2023-02-02T17:33:05.856Z,77.54
2023-02-02T17:35:51.493Z,77.58
2023-02-02T17:38:22.519Z,77.64
2023-02-02T17:40:51.927Z,77.72
2023-02-02T17:43:20.539Z,77.78
2023-02-02T17:45:51.680Z,77.82
2023-02-02T17:48:21.166Z,77.87
2023-02-02T17:50:49.626Z,77.95
2023-02-02T17:53:20.471Z,78.08
2023-02-02T17:55:50.094Z,78.16
2023-02-02T17:58:20.773Z,78.13
2023-02-02T18:00:53.686Z,78.16
2023-02-02T18:03:26.758Z,78.17
2023-02-02T18:05:55.940Z,78.20
2023-02-02T18:08:24.399Z,78.22
2023-02-02T18:10:55.182Z,78.28
2023-02-02T18:13:23.923Z,78.34
2023-02-02T18:15:53.426Z,78.39
2023-02-02T18:18:22.224Z,78.44
2023-02-02T18:20:52.006Z,78.52
2023-02-02T18:23:21.834Z,78.62
2023-02-02T18:25:50.395Z,78.60
2023-02-02T18:28:19.056Z,78.79
2023-02-02T18:30:47.732Z,78.88
2023-02-02T18:33:20.196Z,78.92
2023-02-02T18:35:48.977Z,79.06
2023-02-02T18:38:18.065Z,79.13
2023-02-02T18:40:46.209Z,79.22
2023-02-02T18:43:14.621Z,79.29
2023-02-02T18:45:43.204Z,79.38
2023-02-02T18:48:11.652Z,79.51
2023-02-02T18:50:40.111Z,79.49
2023-02-02T18:53:08.558Z,79.63
2023-02-02T18:55:37.560Z,79.74
2023-02-02T18:58:08.278Z,79.80
2023-02-02T19:00:37.221Z,79.89
2023-02-02T19:03:06.752Z,80.01
2023-02-02T19:06:01.089Z,80.05
2023-02-02T19:08:30.689Z,80.23
2023-02-02T19:11:15.188Z,80.19
2023-02-02T19:13:43.671Z,80.26
2023-02-02T19:16:27.990Z,80.31
2023-02-02T19:19:08.549Z,80.35
2023-02-02T19:21:36.950Z,80.46
2023-02-02T19:24:09.991Z,80.60
2023-02-02T19:26:40.488Z,80.69
2023-02-02T19:29:19.015Z,80.79
2023-02-02T19:32:02.864Z,80.82
2023-02-02T19:34:33.860Z,80.92
2023-02-02T19:37:03.007Z,81.03
2023-02-02T19:39:32.972Z,81.15
2023-02-02T19:42:02.161Z,81.27
2023-02-02T19:44:37.239Z,81.42
2023-02-02T19:47:26.854Z,81.52
2023-02-02T19:49:55.870Z,81.60
2023-02-02T19:52:25.785Z,81.75
2023-02-02T19:54:54.197Z,81.86
2023-02-02T19:57:36.992Z,82.00
2023-02-02T20:00:18.688Z,82.12
2023-02-02T20:02:59.985Z,82.27
2023-02-02T20:05:34.194Z,82.32
2023-02-02T20:08:42.270Z,82.48
2023-02-02T20:11:32.194Z,82.56
2023-02-02T20:14:00.819Z,82.67
2023-02-02T20:16:37.010Z,82.80
2023-02-02T20:19:06.399Z,82.83
2023-02-02T20:21:44.053Z,82.86
2023-02-02T20:24:50.235Z,82.94
2023-02-02T20:27:20.844Z,83.04
2023-02-02T20:29:50.393Z,82.99
2023-02-02T20:32:22.554Z,83.10
2023-02-02T20:34:51.257Z,83.24
2023-02-02T20:37:30.358Z,83.33
2023-02-02T20:40:01.363Z,83.39
2023-02-02T20:42:30.120Z,83.42
2023-02-02T20:44:58.334Z,83.39
2023-02-02T20:47:26.901Z,83.58
2023-02-02T20:49:55.218Z,83.63
2023-02-02T20:52:24.240Z,83.68
2023-02-02T20:54:52.544Z,83.82
2023-02-02T20:57:20.587Z,83.88
2023-02-02T20:59:49.932Z,83.99
2023-02-02T21:02:22.732Z,84.00
2023-02-02T21:04:51.381Z,84.00
2023-02-02T21:07:21.060Z,84.09
2023-02-02T21:09:50.374Z,84.12
2023-02-02T21:12:18.563Z,84.18
2023-02-02T21:14:47.211Z,84.22
2023-02-02T21:17:17.897Z,84.32
2023-02-02T21:19:47.088Z,84.46
2023-02-02T21:22:15.377Z,84.36
2023-02-02T21:24:43.559Z,84.44
2023-02-02T21:27:12.015Z,84.42
2023-02-02T21:29:40.397Z,84.55
2023-02-02T21:32:08.456Z,84.54
2023-02-02T21:34:37.931Z,84.62
2023-02-02T21:37:14.193Z,84.58
2023-02-02T21:39:49.709Z,84.56
2023-02-02T21:42:22.257Z,84.64
2023-02-02T21:44:58.141Z,84.67
2023-02-02T21:47:31.332Z,84.63
2023-02-02T21:50:16.024Z,84.74
2023-02-02T21:52:44.689Z,84.76
2023-02-02T21:55:32.583Z,84.74
2023-02-02T21:58:18.797Z,84.77
2023-02-02T22:00:50.196Z,84.91
2023-02-02T22:03:40.765Z,84.86
2023-02-02T22:06:44.053Z,84.97
2023-02-02T22:09:18.216Z,84.98
2023-02-02T22:11:52.207Z,85.02
2023-02-02T22:14:28.513Z,85.05
2023-02-02T22:16:59.040Z,85.06
2023-02-02T22:19:36.803Z,85.08
2023-02-02T22:22:09.783Z,85.00
2023-02-02T22:24:39.581Z,85.17
2023-02-02T22:27:38.052Z,85.14
2023-02-02T22:30:18.555Z,85.13
2023-02-02T22:32:47.218Z,85.14
2023-02-02T22:35:16.030Z,85.17
2023-02-02T22:37:45.391Z,85.18
2023-02-02T22:40:13.724Z,85.24
2023-02-02T22:42:42.677Z,85.20
2023-02-02T22:45:10.964Z,85.19
2023-02-02T22:47:39.166Z,85.30
2023-02-02T22:50:07.470Z,85.29
2023-02-02T22:52:36.268Z,85.31
2023-02-02T22:55:04.676Z,85.26
2023-02-02T22:57:33.518Z,85.23
2023-02-02T23:00:02.923Z,85.35
2023-02-02T23:02:31.507Z,85.27
2023-02-02T23:04:59.665Z,85.26
2023-02-02T23:07:27.839Z,85.32
2023-02-02T23:09:55.867Z,85.40
2023-02-02T23:12:24.079Z,85.37
2023-02-02T23:14:52.731Z,85.40
2023-02-02T23:17:20.932Z,85.36
2023-02-02T23:19:49.254Z,85.45
2023-02-02T23:22:17.216Z,85.38
2023-02-02T23:24:45.389Z,85.43
2023-02-02T23:27:14.038Z,85.40
2023-02-02T23:29:42.232Z,85.37
2023-02-02T23:32:10.223Z,85.46
2023-02-02T23:40:40.354Z,85.33
2023-02-02T23:43:08.719Z,85.35
2023-02-02T23:45:37.306Z,85.36
2023-02-02T23:48:06.684Z,85.37
2023-02-02T23:50:35.003Z,85.41
2023-02-02T23:53:03.747Z,85.45
2023-02-02T23:55:32.414Z,85.46
2023-02-02T23:58:00.857Z,85.36
